CRK weather

Diosdado Macapagal International Airport
Angeles/Mabalacat, Pampanga Province, Philippines

Public forecast

Using degrees Celsius for public forecast. Weather courtesy of forecast.io.

Current aviation weather report (METAR) for Diosdado Macapagal International Airport

Retrieved 2019/10/21 13:00 UTC (40 minutes ago):

RPLC 211300Z 01002KT 8000 SCT020 BKN100 28/24 Q1011 NOSIG RMK A2985

Aviation forecast (TAF) for Diosdado Macapagal International Airport

Retrieved 2019/10/21 12:03 UTC (2 hours ago):

TAF RPLC 211100Z 2112/2218 06006KT 9999 FEW020 BKN300 TX33/2206Z TN26/2122Z TEMPO 2112/2118 04008KT 5000 TS -SHRA FEW015CB SCT020 BKN100